Time;durP1;ratioP1;P1;durP2;ratioP2;P2;SDS_P1;SDS_P2;PMS_P1;PMS_P2;Temp;Humidity;BMP_temperature;BMP_pressure;BME280_temperature;BME280_humidity;BME280_pressure;Samples;Min_cycle;Max_cycle;Signal;HPM_P1;HPM_P2
2021/11/24 05:25:39;;;;;;;22.87;14.63;;;;;;;-143.35;95.62;78568.19;4955802;28;20531;-80
2021/11/24 05:28:27;;;;;;;22.77;14.00;;;;;;;-143.35;95.68;78578.06;4967454;28;20465;-79
2021/11/24 05:31:15;;;;;;;21.27;14.67;;;;;;;-143.35;95.70;78578.06;5013051;28;20467;-80
2021/11/24 05:34:05;;;;;;;24.60;13.70;;;;;;;-143.35;95.66;78582.03;5003473;28;20443;-78
2021/11/24 05:36:53;;;;;;;21.83;13.97;;;;;;;-143.35;96.09;78574.13;4980842;28;20946;-79
2021/11/24 06:21:10;;;;;;;24.93;14.70;;;;;;;-143.35;94.65;78528.59;4934207;28;20468;-75
2021/11/24 06:23:58;;;;;;;19.97;12.80;;;;;;;-143.35;94.19;78512.75;4946201;29;20486;-75
2021/11/24 06:26:46;;;;;;;21.77;14.00;;;;;;;-143.35;94.00;78520.69;4919653;29;20577;-76
2021/11/24 06:29:33;;;;;;;23.00;14.77;;;;;;;-143.35;94.24;78516.72;4944553;29;20461;-76
2021/11/24 06:32:21;;;;;;;19.17;13.97;;;;;;;-143.35;94.47;78530.56;4953308;28;20456;-76
2021/11/24 06:35:09;;;;;;;21.30;15.00;;;;;;;-143.35;94.79;78526.63;4953402;28;20442;-76
2021/11/24 06:37:58;;;;;;;24.60;13.30;;;;;;;-143.35;94.99;78526.63;4952848;28;20445;-76
2021/11/24 06:40:46;;;;;;;21.10;13.33;;;;;;;-143.35;95.18;78516.72;4953906;28;20441;-75
2021/11/24 06:43:34;;;;;;;25.20;15.23;;;;;;;-143.35;94.92;78510.78;4953037;28;20437;-74
2021/11/24 06:46:21;;;;;;;25.97;14.30;;;;;;;-143.35;94.79;78504.84;4933832;29;20446;-74
2021/11/24 06:49:09;;;;;;;20.40;13.93;;;;;;;-143.35;94.84;78504.84;4934128;29;20470;-76
2021/11/24 06:51:57;;;;;;;23.00;14.77;;;;;;;-143.35;94.65;78512.75;4933160;29;20457;-75
2021/11/24 06:54:46;;;;;;;22.47;14.23;;;;;;;-143.35;94.83;78518.69;4941628;29;20581;-75
2021/11/24 06:57:33;;;;;;;28.47;14.93;;;;;;;-143.35;95.30;78516.72;4953856;28;20433;-75
2021/11/24 07:00:24;;;;;;;23.00;14.40;;;;;;;-143.35;95.30;78512.75;4952298;28;20563;-75
2021/11/24 07:03:11;;;;;;;22.87;13.80;;;;;;;-143.35;95.12;78508.78;4951868;28;20456;-75
2021/11/24 07:05:59;;;;;;;28.47;15.40;;;;;;;-143.35;95.15;78506.81;4951643;28;20459;-76
2021/11/24 07:08:47;;;;;;;25.70;15.47;;;;;;;-143.35;94.79;78500.88;4955856;28;20468;-76
2021/11/24 07:11:36;;;;;;;28.23;16.00;;;;;;;-143.35;94.38;78504.84;4972989;28;20455;-75
2021/11/24 07:14:24;;;;;;;24.73;15.13;;;;;;;-143.35;94.65;78510.78;4959587;28;20457;-75
2021/11/24 07:17:12;;;;;;;29.70;15.60;;;;;;;-143.35;94.69;78504.84;4952716;28;20472;-75
2021/11/24 07:20:01;;;;;;;26.47;15.77;;;;;;;-143.35;94.59;78502.88;4953112;28;21039;-76
2021/11/24 07:22:48;;;;;;;26.97;16.70;;;;;;;-143.35;94.62;78504.84;4953447;28;21113;-75
2021/11/24 07:25:36;;;;;;;25.13;15.30;;;;;;;-143.35;94.44;78494.94;4953115;28;20457;-75
2021/11/24 07:28:25;;;;;;;26.60;16.00;;;;;;;-143.35;94.34;78494.94;4953026;29;20445;-75
2021/11/24 07:31:14;;;;;;;28.37;15.63;;;;;;;-143.35;94.44;78496.91;4952402;29;20492;-75
2021/11/24 07:34:01;;;;;;;27.83;16.30;;;;;;;-143.35;94.21;78492.97;4952346;29;20451;-75
2021/11/24 07:36:49;;;;;;;33.80;18.73;;;;;;;-143.35;94.10;78487.03;4952751;28;20448;-75
2021/11/24 07:39:37;;;;;;;30.47;16.40;;;;;;;-143.35;93.82;78473.16;4955524;28;20804;-75
2021/11/24 07:42:40;;;;;;;27.83;17.23;;;;;;;-143.35;93.50;78469.22;4955794;28;20452;-76
2021/11/24 07:45:29;;;;;;;28.27;17.87;;;;;;;-143.35;93.58;78471.19;4956103;28;20480;-75
2021/11/24 07:48:17;;;;;;;25.93;16.60;;;;;;;-143.35;93.78;78469.22;4956300;28;20480;-75
2021/11/24 07:51:05;;;;;;;25.23;15.07;;;;;;;-143.35;94.06;78467.22;4956248;29;20453;-75
2021/11/24 07:53:53;;;;;;;22.33;14.47;;;;;;;-143.35;94.10;78453.38;4943636;28;20491;-75
2021/11/24 07:56:41;;;;;;;22.97;15.03;;;;;;;-143.35;93.81;78449.41;4962230;28;20536;-76
2021/11/24 07:59:29;;;;;;;22.43;14.27;;;;;;;-143.35;93.66;78453.38;4954987;29;21013;-75
2021/11/24 08:02:19;;;;;;;23.70;15.83;;;;;;;-143.35;93.91;78453.38;4959064;29;20981;-75
2021/11/24 08:05:08;;;;;;;22.27;14.30;;;;;;;-143.35;94.15;78447.44;4956277;28;20592;-75
2021/11/24 08:07:56;;;;;;;24.97;15.07;;;;;;;-143.35;94.08;78439.53;4956317;28;20460;-75
2021/11/24 08:10:43;;;;;;;24.17;14.83;;;;;;;-143.35;94.07;78431.59;4956347;29;20464;-75
2021/11/24 08:13:31;;;;;;;24.87;14.27;;;;;;;-143.35;93.88;78425.66;4956314;28;20532;-76
2021/11/24 08:16:19;;;;;;;26.50;14.93;;;;;;;-143.35;93.79;78427.66;4955682;29;20452;-75
2021/11/24 08:19:08;;;;;;;24.20;14.83;;;;;;;-143.35;93.53;78415.75;4956175;28;20477;-75
2021/11/24 08:21:56;;;;;;;21.27;13.07;;;;;;;-143.35;93.57;78411.81;4956492;28;20449;-76
2021/11/24 08:24:44;;;;;;;25.13;14.87;;;;;;;-143.35;93.67;78405.88;4955484;29;20995;-76
2021/11/24 08:27:32;;;;;;;25.97;16.30;;;;;;;-143.35;93.01;78392.00;4966998;28;20460;-76
2021/11/24 08:30:22;;;;;;;25.87;15.37;;;;;;;-143.35;92.73;78386.06;4955946;28;21004;-75
2021/11/24 08:33:10;;;;;;;30.33;15.83;;;;;;;-143.35;92.65;78372.22;4956927;28;20543;-75
2021/11/24 08:35:59;;;;;;;26.37;15.00;;;;;;;-143.35;92.41;78370.25;4955536;28;20951;-76
2021/11/24 08:38:46;;;;;;;25.23;15.13;;;;;;;-143.35;92.13;78358.38;4955410;29;20469;-75
2021/11/24 08:41:34;;;;;;;23.27;13.93;;;;;;;-143.35;91.91;78346.50;4955584;28;20449;-75
2021/11/24 08:44:22;;;;;;;27.23;16.50;;;;;;;-143.35;91.56;78340.56;4953707;28;20459;-75
2021/11/24 08:47:10;;;;;;;28.90;15.40;;;;;;;-143.35;90.95;78348.47;4955372;28;20879;-75
2021/11/24 08:49:57;;;;;;;28.27;16.87;;;;;;;-143.35;91.25;78342.53;4956184;28;20472;-76
2021/11/24 08:52:47;;;;;;;25.30;16.03;;;;;;;-143.35;91.19;78334.63;4956802;28;20445;-75
2021/11/24 08:55:35;;;;;;;30.70;16.23;;;;;;;-143.35;91.17;78324.72;4955930;29;20986;-76
2021/11/24 08:58:23;;;;;;;31.20;17.53;;;;;;;-143.35;91.03;78312.84;4955862;29;20822;-75
2021/11/24 09:01:11;;;;;;;27.93;16.47;;;;;;;-143.35;90.83;78300.97;4958914;29;20473;-75
2021/11/24 09:03:59;;;;;;;30.87;16.07;;;;;;;-143.35;90.31;78289.09;4956926;28;20969;-75
2021/11/24 09:06:46;;;;;;;29.37;16.53;;;;;;;-143.35;89.90;78283.16;4956556;28;20444;-75
2021/11/24 09:09:39;;;;;;;34.97;16.50;;;;;;;-143.35;89.65;78281.16;4967556;28;20464;-75
2021/11/24 09:12:27;;;;;;;30.33;15.83;;;;;;;-143.35;89.73;78271.28;4955484;29;20540;-76
2021/11/24 09:15:14;;;;;;;32.23;16.23;;;;;;;-143.35;89.14;78251.47;4955229;28;20445;-75
2021/11/24 09:18:04;;;;;;;25.67;15.20;;;;;;;-143.35;87.93;78245.53;4954793;29;20528;-76
2021/11/24 09:20:51;;;;;;;31.00;16.37;;;;;;;-143.35;87.79;78237.63;4954653;29;20531;-76
2021/11/24 09:23:40;;;;;;;28.43;16.73;;;;;;;-143.35;87.65;78231.69;4954986;28;20448;-76
2021/11/24 09:26:38;;;;;;;29.07;15.57;;;;;;;-143.35;87.96;78231.69;4967976;28;20891;-76
2021/11/24 09:29:27;;;;;;;34.10;15.30;;;;;;;-143.35;88.01;78229.72;4954879;28;20488;-76
2021/11/24 09:32:16;;;;;;;35.30;16.33;;;;;;;-143.35;88.10;78203.97;4954954;29;20441;-76
2021/11/24 09:35:05;;;;;;;23.53;14.10;;;;;;;-143.35;87.56;78203.97;4954853;29;20453;-75
2021/11/24 09:37:52;;;;;;;28.40;14.77;;;;;;;-143.35;87.45;78198.03;4953815;28;20445;-76
2021/11/24 09:40:41;;;;;;;27.67;14.83;;;;;;;-143.35;87.36;78196.06;4953553;29;20472;-75
2021/11/24 09:43:34;;;;;;;28.17;15.07;;;;;;;-143.35;87.13;78190.13;4953468;28;21038;-75
2021/11/24 09:46:24;;;;;;;28.57;16.13;;;;;;;-143.35;86.36;78174.28;4965700;28;20463;-76
2021/11/24 09:49:13;;;;;;;26.30;14.40;;;;;;;-143.35;86.44;78168.34;4955034;28;20552;-76
2021/11/24 09:52:01;;;;;;;24.13;13.57;;;;;;;-143.35;85.61;78156.47;4954457;29;20441;-76
2021/11/24 09:54:50;;;;;;;26.10;14.70;;;;;;;-143.35;85.10;78156.47;4954163;29;20951;-76
2021/11/24 09:57:38;;;;;;;26.47;15.00;;;;;;;-143.35;85.40;78156.47;4954463;28;20457;-76
2021/11/24 10:00:28;;;;;;;26.47;14.13;;;;;;;-143.35;85.51;78136.69;4954333;28;20846;-76
2021/11/24 10:03:17;;;;;;;24.97;13.83;;;;;;;-143.35;85.01;78132.72;4953206;28;20486;-76
2021/11/24 10:06:04;;;;;;;27.87;14.20;;;;;;;-143.35;84.80;78132.72;4954996;28;20503;-75
2021/11/24 10:08:52;;;;;;;24.80;13.50;;;;;;;-143.35;84.92;78128.78;4953221;28;20476;-75
2021/11/24 10:11:40;;;;;;;25.67;14.50;;;;;;;-143.35;84.92;78120.84;4953395;29;20437;-75
2021/11/24 10:14:28;;;;;;;24.60;14.93;;;;;;;-143.35;84.74;78112.94;4953504;29;20449;-75
2021/11/24 10:17:22;;;;;;;22.30;14.63;;;;;;;-143.35;84.95;78105.03;4954376;29;20531;-75
2021/11/24 10:20:11;;;;;;;24.90;14.10;;;;;;;-143.35;84.79;78093.16;4953775;28;20476;-76
2021/11/24 10:23:19;;;;;;;24.80;13.90;;;;;;;-143.35;84.78;78087.22;4954421;28;20449;-76
2021/11/24 10:26:27;;;;;;;25.60;14.80;;;;;;;-143.35;84.04;78083.25;4934104;29;20525;-76
2021/11/24 10:29:17;;;;;;;24.00;13.97;;;;;;;-143.35;83.74;78075.34;4933985;29;20524;-75
2021/11/24 10:32:07;;;;;;;20.50;12.30;;;;;;;-143.35;83.63;78069.41;4920773;29;20446;-76
2021/11/24 10:34:58;;;;;;;20.67;13.80;;;;;;;-143.35;83.97;78065.44;4947695;28;20456;-76
2021/11/24 10:37:45;;;;;;;20.47;12.73;;;;;;;-143.35;83.81;78041.69;4939541;29;20445;-75
2021/11/24 10:40:41;;;;;;;18.10;12.10;;;;;;;-143.35;83.48;78023.88;4953300;28;20893;-75
2021/11/24 10:43:40;;;;;;;20.40;13.43;;;;;;;-143.35;82.57;78013.97;4954171;29;20441;-76
2021/11/24 10:46:28;;;;;;;20.37;12.40;;;;;;;-143.35;82.25;78008.03;4953651;29;20959;-76
2021/11/24 10:49:15;;;;;;;23.40;13.10;;;;;;;-143.35;82.29;77994.19;4954031;29;20465;-76
2021/11/24 10:52:21;;;;;;;19.77;11.63;;;;;;;-143.35;82.06;77982.31;4953983;28;20899;-76
2021/11/24 10:55:11;;;;;;;19.07;12.43;;;;;;;-143.35;81.88;77964.50;4953056;29;20498;-76
2021/11/24 10:58:00;;;;;;;19.33;12.70;;;;;;;-143.35;80.85;77942.72;4953153;29;20449;-76
2021/11/24 11:00:50;;;;;;;16.60;12.07;;;;;;;-143.35;80.74;77932.84;4952438;29;20465;-76
2021/11/24 11:03:40;;;;;;;19.90;12.70;;;;;;;-143.35;80.29;77909.09;4952002;28;20464;-76
2021/11/24 11:06:29;;;;;;;17.80;11.73;;;;;;;-143.35;79.02;77901.16;4952973;29;20455;-76
2021/11/24 11:09:18;;;;;;;17.97;11.57;;;;;;;-143.35;78.87;77893.25;4950775;29;20471;-76
2021/11/24 11:12:09;;;;;;;17.50;11.60;;;;;;;-143.35;78.96;77885.34;4952992;28;20445;-76
2021/11/24 11:15:12;;;;;;;19.90;12.50;;;;;;;-143.35;79.21;77873.47;4954436;28;20449;-75
2021/11/24 11:18:10;;;;;;;17.00;10.90;;;;;;;-143.35;79.08;77865.53;4957539;29;20489;-75
2021/11/24 11:21:01;;;;;;;19.57;12.07;;;;;;;-143.35;78.17;77859.59;4959036;28;20520;-76
2021/11/24 11:23:49;;;;;;;18.07;11.13;;;;;;;-143.35;77.50;77845.75;4957757;28;20805;-76
2021/11/24 11:26:38;;;;;;;14.73;10.10;;;;;;;-143.35;76.96;77837.84;4956590;29;20826;-76
2021/11/24 11:29:26;;;;;;;16.50;11.07;;;;;;;-143.35;76.61;77837.84;4956775;28;20986;-76
2021/11/24 11:32:15;;;;;;;17.03;11.67;;;;;;;-143.35;76.69;77827.94;4956644;29;20989;-76
2021/11/24 11:35:03;;;;;;;16.97;11.40;;;;;;;-143.35;75.45;77824.00;4955646;28;20449;-76
2021/11/24 11:37:52;;;;;;;16.37;11.30;;;;;;;-143.35;74.88;77822.00;4956483;29;20449;-76
2021/11/24 11:40:41;;;;;;;17.60;12.03;;;;;;;-143.35;74.91;77814.09;4956328;28;20585;-77
2021/11/24 11:43:31;;;;;;;15.57;10.93;;;;;;;-143.35;74.14;77802.22;4955963;29;20449;-76
2021/11/24 11:46:21;;;;;;;14.63;10.30;;;;;;;-143.35;73.88;77804.19;4937487;29;20446;-76
2021/11/24 11:49:11;;;;;;;16.23;10.83;;;;;;;-143.35;73.82;77790.34;4937560;29;20547;-76
2021/11/24 11:52:05;;;;;;;16.37;10.57;;;;;;;-143.35;73.85;77780.44;4937301;29;20446;-76
2021/11/24 11:54:53;;;;;;;14.57;10.70;;;;;;;-143.35;73.52;77778.47;4947691;28;20445;-76
2021/11/24 11:57:44;;;;;;;13.60;9.93;;;;;;;-143.35;72.74;77766.59;4956153;29;20445;-76
2021/11/24 12:00:34;;;;;;;11.10;8.57;;;;;;;-143.35;72.38;77760.66;4956081;28;20480;-75
2021/11/24 12:03:53;;;;;;;10.83;7.83;;;;;;;-143.35;71.97;77760.66;4956529;28;20536;-76
2021/11/24 12:06:44;;;;;;;10.03;7.47;;;;;;;-143.35;71.01;77764.63;4946968;28;20528;-76
2021/11/24 12:09:35;;;;;;;7.30;6.40;;;;;;;-143.35;70.95;77764.63;4956119;28;20468;-75
2021/11/24 12:12:26;;;;;;;9.93;7.70;;;;;;;-143.35;69.52;77764.63;4956529;28;21131;-76
2021/11/24 12:15:27;;;;;;;7.07;6.37;;;;;;;-143.35;70.14;77778.47;4956977;28;20534;-76
2021/11/24 12:18:16;;;;;;;6.63;5.93;;;;;;;-143.35;68.49;77780.44;4955036;28;20444;-76
2021/11/24 12:40:00;;;;;;;5.30;4.27;;;;;;;-143.35;67.75;77804.19;4953085;28;21013;-80
2021/11/24 13:12:34;;;;;;;3.10;2.80;;;;;;;-143.35;64.80;77853.69;4806948;29;20444;-80
2021/11/24 13:25:41;;;;;;;5.33;3.40;;;;;;;-143.35;64.50;77853.69;5008752;28;20453;-79
2021/11/24 13:38:06;;;;;;;3.27;2.97;;;;;;;-143.35;62.25;77859.59;4969847;28;20440;-80
2021/11/24 13:45:52;;;;;;;11.80;3.23;;;;;;;-143.35;62.36;77859.59;4992419;28;20465;-77
2021/11/24 13:49:40;;;;;;;3.20;2.03;;;;;;;-143.35;62.50;77863.56;4976379;28;20823;-78
2021/11/24 14:34:13;;;;;;;6.43;2.70;;;;;;;-143.35;62.22;77871.47;4878505;29;20460;-79
2021/11/24 14:37:18;;;;;;;3.47;2.60;;;;;;;-143.35;62.18;77875.44;4866028;29;20457;-80
2021/11/24 14:49:18;;;;;;;3.20;2.90;;;;;;;-143.35;62.92;77873.47;4806870;29;20463;-80
2021/11/24 14:52:35;;;;;;;4.70;2.17;;;;;;;-143.35;63.79;77881.38;4882472;29;20452;-80
2021/11/24 14:59:04;;;;;;;;;;;;;;;;;;;;;
2021/11/24 15:02:37;;;;;;;2.30;1.70;;;;;;;-143.35;63.33;77881.38;4980199;28;20476;-79
2021/11/24 15:06:02;;;;;;;2.20;2.00;;;;;;;-143.35;63.54;77887.31;4979591;28;20822;-79
2021/11/24 15:10:06;;;;;;;3.00;2.00;;;;;;;-143.35;63.48;77903.16;4979008;28;20471;-80
2021/11/24 15:32:21;;;;;;;3.67;2.47;;;;;;;-143.35;67.81;77950.66;4894470;29;20495;-81
2021/11/24 15:35:11;;;;;;;3.27;2.30;;;;;;;-143.35;68.07;77942.72;4919890;28;20971;-79
2021/11/24 15:37:58;;;;;;;3.00;2.70;;;;;;;-143.35;67.84;77944.72;4997182;28;20518;-78
2021/11/24 15:40:47;;;;;;;3.27;2.93;;;;;;;-143.35;67.84;77946.69;4998160;28;20852;-80
2021/11/24 15:43:35;;;;;;;2.83;2.30;;;;;;;-143.35;68.34;77948.66;4997366;28;20988;-77
2021/11/24 15:46:23;;;;;;;2.93;2.73;;;;;;;-143.35;68.27;77960.53;4998169;28;20446;-81
2021/11/24 15:49:11;;;;;;;3.80;2.77;;;;;;;-143.35;68.92;77980.34;4997155;28;20513;-79
2021/11/24 15:52:01;;;;;;;2.53;2.33;;;;;;;-143.35;69.59;77986.28;4995985;28;20451;-79
2021/11/24 15:54:48;;;;;;;3.30;3.03;;;;;;;-143.35;69.46;77988.25;4995605;28;20482;-79
2021/11/24 15:57:38;;;;;;;2.80;2.60;;;;;;;-143.35;70.39;77988.25;4994258;28;20557;-80
2021/11/24 16:00:25;;;;;;;4.63;3.60;;;;;;;-143.35;70.38;77994.19;4994314;28;20525;-80
2021/11/24 16:03:14;;;;;;;4.10;3.10;;;;;;;-143.35;70.93;77996.16;4996818;28;20443;-80
2021/11/24 16:06:02;;;;;;;3.03;2.70;;;;;;;-143.35;70.92;77982.31;4996856;28;20502;-82
2021/11/24 16:08:52;;;;;;;3.57;3.27;;;;;;;-143.35;70.56;77976.38;4997617;28;20496;-81
2021/11/24 16:11:40;;;;;;;6.40;3.40;;;;;;;-143.35;70.92;77982.31;4996521;28;20451;-81
2021/11/24 16:14:28;;;;;;;2.90;2.70;;;;;;;-143.35;70.81;77982.31;4980979;28;20816;-81
2021/11/24 16:17:15;;;;;;;3.90;3.60;;;;;;;-143.35;71.81;77980.34;4996504;28;20550;-81
2021/11/24 16:20:04;;;;;;;3.70;3.40;;;;;;;-143.35;72.33;77984.28;5003492;28;20519;-80
2021/11/24 16:22:52;;;;;;;5.57;4.13;;;;;;;-143.35;72.34;77982.31;5009781;28;20463;-81
2021/11/24 16:25:41;;;;;;;6.70;5.53;;;;;;;-143.35;72.93;77988.25;4994718;28;20517;-80
2021/11/24 16:28:28;;;;;;;4.00;3.47;;;;;;;-143.35;73.03;77986.28;4995442;28;20451;-81
2021/11/24 16:31:16;;;;;;;3.80;3.40;;;;;;;-143.35;72.84;77992.22;4966656;28;20480;-81
2021/11/24 16:34:04;;;;;;;3.47;3.17;;;;;;;-143.35;72.33;77978.34;4961793;28;20448;-81
2021/11/24 16:36:52;;;;;;;3.97;3.50;;;;;;;-143.35;72.43;77992.22;4974336;28;20465;-82
2021/11/24 16:39:41;;;;;;;4.67;3.13;;;;;;;-143.35;73.02;77996.16;4959002;28;20472;-80
2021/11/24 16:42:30;;;;;;;3.13;2.93;;;;;;;-143.35;73.52;78006.06;4972327;28;20472;-81
2021/11/24 16:45:18;;;;;;;5.97;5.47;;;;;;;-143.35;73.89;78021.91;4974530;28;20453;-80
2021/11/24 16:48:06;;;;;;;5.53;5.03;;;;;;;-143.35;74.32;78029.81;4976819;28;20460;-81
2021/11/24 16:50:54;;;;;;;4.40;3.53;;;;;;;-143.35;74.85;78045.66;4981699;28;20461;-82
2021/11/24 16:53:42;;;;;;;3.30;2.90;;;;;;;-143.35;74.82;78057.53;4977119;28;20451;-81
2021/11/24 16:56:31;;;;;;;3.20;2.87;;;;;;;-143.35;75.59;78067.41;4978835;28;20455;-81
2021/11/24 16:59:23;;;;;;;3.70;2.63;;;;;;;-143.35;75.65;78085.22;4979814;28;20444;-81
2021/11/24 17:02:11;;;;;;;3.87;3.47;;;;;;;-143.35;76.30;78101.06;4976949;28;20472;-81
2021/11/24 17:04:59;;;;;;;3.50;3.20;;;;;;;-143.35;77.08;78108.97;4961724;28;20462;-81
2021/11/24 17:07:49;;;;;;;3.40;3.10;;;;;;;-143.35;77.15;78122.84;4977233;28;20448;-80
2021/11/24 17:11:05;;;;;;;3.63;2.73;;;;;;;-143.35;77.83;78126.78;5013517;23;20646;-80
2021/11/24 17:15:01;;;;;;;6.40;3.30;;;;;;;-143.35;78.39;78146.59;4998999;28;20435;-79
2021/11/24 17:18:10;;;;;;;3.10;2.90;;;;;;;-143.35;78.87;78158.47;5007494;28;20443;-81
2021/11/24 17:21:13;;;;;;;3.23;2.93;;;;;;;-143.35;79.25;78162.41;4988290;28;21214;-81
2021/11/24 17:24:10;;;;;;;3.00;2.70;;;;;;;-143.35;80.27;78172.31;4987544;28;21000;-80
2021/11/24 17:26:57;;;;;;;3.53;2.83;;;;;;;-143.35;80.90;78186.16;4984366;28;20964;-79
2021/11/24 17:29:46;;;;;;;3.30;3.03;;;;;;;-143.35;81.44;78192.09;5008122;28;20547;-80
2021/11/24 17:32:35;;;;;;;3.53;3.10;;;;;;;-143.35;81.80;78196.06;5005621;28;20444;-77
2021/11/24 17:35:23;;;;;;;3.30;3.00;;;;;;;-143.35;82.27;78198.03;5004327;28;20462;-78
2021/11/24 17:38:10;;;;;;;2.90;2.70;;;;;;;-143.35;82.47;78196.06;5002925;28;20443;-81
2021/11/24 17:40:59;;;;;;;4.80;3.93;;;;;;;-143.35;83.09;78202.00;5008836;28;20448;-80
2021/11/24 17:43:48;;;;;;;9.50;4.30;;;;;;;-143.35;83.50;78211.91;5004259;28;20453;-80
2021/11/24 17:46:37;;;;;;;4.80;4.40;;;;;;;-143.35;83.61;78227.72;4994974;28;20443;-79
2021/11/24 17:49:28;;;;;;;5.73;4.50;;;;;;;-143.35;84.10;78231.69;4984227;28;20892;-79
2021/11/24 17:52:16;;;;;;;5.93;5.23;;;;;;;-143.35;84.58;78243.56;4983271;28;20461;-82
2021/11/24 17:55:05;;;;;;;8.90;8.00;;;;;;;-143.35;84.87;78251.47;4986523;28;20953;-80
2021/11/24 17:57:53;;;;;;;15.33;9.83;;;;;;;-143.35;85.24;78255.44;4984564;28;20961;-81
2021/11/24 18:00:41;;;;;;;10.87;8.37;;;;;;;-143.35;85.11;78263.34;4984028;28;20595;-80
2021/11/24 18:03:30;;;;;;;11.87;8.63;;;;;;;-143.35;85.55;78271.28;4983814;28;20468;-80
2021/11/24 18:06:17;;;;;;;13.63;8.63;;;;;;;-143.35;85.67;78275.22;4985140;28;20473;-79
2021/11/24 18:09:05;;;;;;;10.60;8.03;;;;;;;-143.35;85.72;78277.22;4983908;28;20874;-79
2021/11/24 18:11:53;;;;;;;9.07;7.37;;;;;;;-143.35;86.52;78283.16;4984204;28;20470;-80
2021/11/24 18:14:41;;;;;;;9.93;8.10;;;;;;;-143.35;86.85;78283.16;4984474;28;20468;-80
2021/11/24 18:17:29;;;;;;;7.90;6.50;;;;;;;-143.35;86.68;78277.22;4983890;28;20954;-80
2021/11/24 18:20:21;;;;;;;8.30;6.60;;;;;;;-143.35;86.68;78277.22;5002692;23;20530;-77
2021/11/24 18:23:11;;;;;;;8.50;7.00;;;;;;;-143.35;87.04;78273.25;5008398;28;20556;-77
2021/11/24 18:26:04;;;;;;;10.03;7.00;;;;;;;-143.35;87.12;78267.31;4986671;28;20442;-77
2021/11/24 18:28:52;;;;;;;9.60;7.43;;;;;;;-143.35;87.08;78251.47;4989310;28;20617;-77
2021/11/24 18:31:40;;;;;;;13.63;7.53;;;;;;;-143.35;86.79;78237.63;4995059;28;20471;-77
2021/11/24 18:34:28;;;;;;;7.80;7.00;;;;;;;-143.35;86.32;78227.72;4988623;28;20968;-76
2021/11/24 18:37:17;;;;;;;8.60;6.90;;;;;;;-143.35;85.98;78217.84;4987124;28;21000;-76
2021/11/24 18:40:07;;;;;;;10.60;8.30;;;;;;;-143.35;85.64;78207.94;4986730;28;20485;-77
2021/11/24 18:42:54;;;;;;;10.03;8.37;;;;;;;-143.35;85.95;78207.94;4986134;28;20598;-77
2021/11/24 18:45:42;;;;;;;10.47;8.77;;;;;;;-143.35;85.77;78190.13;4986994;28;20833;-77
2021/11/24 18:48:29;;;;;;;13.20;8.43;;;;;;;-143.35;86.18;78184.19;4967689;28;20598;-77
2021/11/24 18:51:18;;;;;;;11.70;7.97;;;;;;;-143.35;86.17;78168.34;4988385;28;20473;-77
2021/11/24 18:54:07;;;;;;;11.50;7.20;;;;;;;-143.35;86.27;78162.41;4992253;28;20447;-77
2021/11/24 18:56:55;;;;;;;8.97;7.90;;;;;;;-143.35;85.70;78152.53;4987391;28;20455;-77
2021/11/24 18:59:43;;;;;;;8.63;7.60;;;;;;;-143.35;85.72;78148.56;4967862;28;20541;-77
2021/11/24 19:02:31;;;;;;;8.90;8.00;;;;;;;-143.35;85.40;78142.63;4987765;28;20822;-76
2021/11/24 19:05:19;;;;;;;11.63;8.73;;;;;;;-143.35;85.71;78140.66;4988821;28;20443;-75
2021/11/24 19:08:06;;;;;;;12.00;9.10;;;;;;;-143.35;85.42;78144.59;4986637;28;20948;-77
2021/11/24 19:10:55;;;;;;;13.07;9.73;;;;;;;-143.35;85.57;78164.41;4986979;28;20471;-77
2021/11/24 19:13:43;;;;;;;14.50;9.77;;;;;;;-143.35;85.96;78186.16;4988260;28;20448;-77
2021/11/24 19:16:31;;;;;;;11.40;9.60;;;;;;;-143.35;86.46;78196.06;4968726;28;20459;-78
2021/11/24 19:19:19;;;;;;;18.80;13.10;;;;;;;-143.35;86.73;78217.84;4988428;28;20948;-77
2021/11/24 19:22:07;;;;;;;16.00;11.37;;;;;;;-143.35;87.20;78223.78;4987888;28;21044;-77
2021/11/24 19:24:54;;;;;;;17.67;12.30;;;;;;;-143.35;87.38;78229.72;4988830;28;20443;-78
2021/11/24 19:27:45;;;;;;;16.63;12.33;;;;;;;-143.35;87.87;78239.59;4988001;28;20462;-78
2021/11/24 19:30:33;;;;;;;14.70;12.47;;;;;;;-143.35;87.97;78245.53;4989237;28;20480;-78
2021/11/24 19:33:20;;;;;;;19.37;13.43;;;;;;;-143.35;88.21;78247.53;4990816;28;20443;-78
2021/11/24 19:36:09;;;;;;;16.80;12.13;;;;;;;-143.35;88.50;78255.44;4990534;28;20458;-78
2021/11/24 19:38:57;;;;;;;14.07;12.00;;;;;;;-143.35;88.48;78259.41;4991620;28;20451;-77
2021/11/24 19:41:45;;;;;;;17.80;12.07;;;;;;;-143.35;88.65;78257.41;4994303;28;21047;-77
2021/11/24 19:44:34;;;;;;;12.40;10.40;;;;;;;-143.35;89.00;78263.34;4995207;28;20436;-78
2021/11/24 19:47:24;;;;;;;13.63;10.20;;;;;;;-143.35;88.95;78267.31;4977427;28;20829;-77
2021/11/24 19:50:15;;;;;;;12.33;10.47;;;;;;;-143.35;89.18;78271.28;4979540;28;20450;-77
2021/11/24 19:53:04;;;;;;;11.40;9.40;;;;;;;-143.35;89.26;78273.25;4995827;28;20501;-77
2021/11/24 19:55:53;;;;;;;10.00;9.00;;;;;;;-143.35;89.30;78273.25;4994918;28;20483;-78
2021/11/24 19:58:43;;;;;;;13.83;10.37;;;;;;;-143.35;89.61;78277.22;4996134;28;20454;-77
2021/11/24 20:01:33;;;;;;;12.50;11.13;;;;;;;-143.35;89.74;78283.16;4978733;28;20510;-77
2021/11/24 20:04:20;;;;;;;10.97;9.80;;;;;;;-143.35;89.69;78295.03;4981119;28;20546;-76
2021/11/24 20:07:08;;;;;;;12.73;8.80;;;;;;;-143.35;89.84;78304.94;4995601;28;20451;-77
2021/11/24 20:09:56;;;;;;;11.17;8.90;;;;;;;-143.35;89.76;78312.84;4995737;28;20501;-77
2021/11/24 20:12:46;;;;;;;9.70;8.50;;;;;;;-143.35;89.86;78322.75;4980951;28;21007;-77
2021/11/24 20:15:36;;;;;;;11.10;9.13;;;;;;;-143.35;90.07;78316.81;4994132;28;20593;-78
2021/11/24 20:18:25;;;;;;;12.00;10.23;;;;;;;-143.35;90.16;78314.81;4988600;28;20941;-78
2021/11/24 20:21:13;;;;;;;9.20;8.30;;;;;;;-143.35;90.02;78318.78;4977330;28;20483;-76
2021/11/24 20:24:01;;;;;;;9.73;8.30;;;;;;;-143.35;90.14;78318.78;4977098;28;20476;-76
2021/11/24 20:26:50;;;;;;;11.70;8.10;;;;;;;-143.35;90.22;78322.75;4978195;28;20452;-77
2021/11/24 20:29:37;;;;;;;9.67;8.67;;;;;;;-143.35;90.23;78324.72;4975350;28;20495;-77
2021/11/24 20:32:25;;;;;;;9.40;8.40;;;;;;;-143.35;90.17;78330.66;4980351;28;20454;-76
2021/11/24 20:35:14;;;;;;;9.43;7.90;;;;;;;-143.35;90.19;78334.63;4988862;28;20450;-76
2021/11/24 20:38:03;;;;;;;10.33;8.53;;;;;;;-143.35;90.35;78338.56;4994156;28;21232;-76
2021/11/24 20:40:50;;;;;;;10.20;7.47;;;;;;;-143.35;90.54;78336.59;4961282;28;20535;-77
2021/11/24 20:43:39;;;;;;;9.07;8.17;;;;;;;-143.35;90.58;78338.56;4975597;28;20516;-77
2021/11/24 20:46:27;;;;;;;8.53;7.60;;;;;;;-143.35;90.69;78344.50;4973456;28;21155;-78
2021/11/24 20:49:15;;;;;;;10.70;7.20;;;;;;;-143.35;90.96;78346.50;4976548;28;20814;-77
2021/11/24 20:52:05;;;;;;;9.43;7.47;;;;;;;-143.35;90.99;78344.50;4989132;28;20466;-77
2021/11/24 20:54:52;;;;;;;8.10;6.73;;;;;;;-143.35;90.79;78350.44;4993195;28;20451;-76
2021/11/24 20:57:40;;;;;;;9.60;7.30;;;;;;;-143.35;90.99;78352.44;4994867;28;20447;-77
2021/11/24 21:00:28;;;;;;;9.53;7.70;;;;;;;-143.35;90.97;78354.41;4993863;28;20984;-76
2021/11/24 21:03:17;;;;;;;9.87;7.97;;;;;;;-143.35;90.94;78360.34;4993976;28;20555;-77
2021/11/24 21:06:05;;;;;;;10.53;8.30;;;;;;;-143.35;90.87;78360.34;4994420;28;20439;-76
2021/11/24 21:08:55;;;;;;;8.30;7.40;;;;;;;-143.35;91.08;78362.31;4994503;28;20525;-77
2021/11/24 21:11:43;;;;;;;8.30;7.47;;;;;;;-143.35;91.17;78362.31;4994199;28;20459;-76
2021/11/24 21:14:31;;;;;;;8.20;7.27;;;;;;;-143.35;91.58;78362.31;4978859;28;20837;-77
2021/11/24 21:17:18;;;;;;;12.80;7.57;;;;;;;-143.35;91.66;78362.31;4993550;28;20443;-77
2021/11/24 21:20:08;;;;;;;7.70;7.00;;;;;;;-143.35;91.87;78356.38;4994203;28;20443;-77
2021/11/24 21:22:56;;;;;;;9.27;7.37;;;;;;;-143.35;91.74;78366.28;4975211;28;21024;-78
2021/11/24 21:25:46;;;;;;;8.10;7.37;;;;;;;-143.35;91.84;78370.25;4970049;28;20535;-76
2021/11/24 21:28:35;;;;;;;6.83;6.20;;;;;;;-143.35;92.02;78368.25;4973901;28;20456;-76